Time;durP1;ratioP1;P1;durP2;ratioP2;P2;SDS_P1;SDS_P2;PMS_P1;PMS_P2;Temp;Humidity;BMP_temperature;BMP_pressure;BME280_temperature;BME280_humidity;BME280_pressure;Samples;Min_cycle;Max_cycle;Signal;HPM_P1;HPM_P2
2022/02/09 00:02:32;;;;;;;6.97;2.83;;;;;;;9.91;100.00;102602.31;5224629;28;20795;-78
2022/02/09 00:05:27;;;;;;;4.47;2.40;;;;;;;9.93;100.00;102590.84;5221367;28;20033;-75
2022/02/09 00:08:01;;;;;;;3.47;2.40;;;;;;;9.81;100.00;102599.38;5219631;28;20042;-76
2022/02/09 00:10:34;;;;;;;3.60;2.20;;;;;;;9.81;100.00;102595.88;5223109;28;20508;-75
2022/02/09 00:13:39;;;;;;;3.95;2.78;;;;;;;9.75;100.00;102597.06;5223418;28;20040;-75
2022/02/09 00:18:53;;;;;;;5.78;2.25;;;;;;;9.69;100.00;102606.09;5224339;28;20029;-75
2022/02/09 00:24:16;;;;;;;2.97;2.42;;;;;;;9.68;100.00;102606.19;5224126;28;20044;-75
2022/02/09 01:32:57;;;;;;;3.05;2.45;;;;;;;9.51;100.00;102575.69;5225009;28;20445;-75
2022/02/09 01:40:09;;;;;;;3.63;2.75;;;;;;;9.57;100.00;102566.66;5225205;28;20041;-75
2022/02/09 01:56:38;;;;;;;4.25;2.88;;;;;;;9.59;100.00;102555.19;5224963;28;20037;-75
2022/02/09 01:59:10;;;;;;;3.88;2.47;;;;;;;9.60;100.00;102546.41;5227328;28;20034;-75
2022/02/09 02:01:41;;;;;;;5.85;3.28;;;;;;;9.61;100.00;102545.47;5224215;28;20571;-76
2022/02/09 02:04:12;;;;;;;3.30;2.63;;;;;;;9.63;100.00;102554.09;5227669;28;20151;-75
2022/02/09 02:06:46;;;;;;;4.38;2.80;;;;;;;9.62;100.00;102547.16;5224713;28;20173;-76
2022/02/09 02:09:19;;;;;;;4.10;2.83;;;;;;;9.62;100.00;102547.16;5226850;28;20029;-76
2022/02/09 02:12:03;;;;;;;5.70;3.10;;;;;;;9.63;100.00;102542.78;5227993;28;20029;-75
2022/02/09 02:14:44;;;;;;;4.30;2.75;;;;;;;9.63;100.00;102542.78;5207961;28;20049;-76
2022/02/09 02:17:30;;;;;;;4.35;2.83;;;;;;;9.65;100.00;102543.53;5226373;28;20109;-75
2022/02/09 02:20:13;;;;;;;5.28;2.83;;;;;;;9.65;100.00;102543.53;5220695;28;20045;-76
2022/02/09 02:23:04;;;;;;;6.28;3.13;;;;;;;9.65;100.00;102540.91;5223306;28;20029;-75
2022/02/09 02:25:59;;;;;;;4.80;2.78;;;;;;;9.68;100.00;102545.97;5228442;28;20046;-75
2022/02/09 02:28:52;;;;;;;3.95;3.08;;;;;;;9.61;100.00;102534.16;5222446;28;20041;-75
2022/02/09 02:34:39;;;;;;;4.50;3.40;;;;;;;9.74;100.00;102545.66;5225470;28;20028;-75
2022/02/09 02:40:13;;;;;;;5.72;3.72;;;;;;;9.71;100.00;102532.75;5225167;28;20120;-75
2022/02/09 02:57:03;;;;;;;6.63;5.40;;;;;;;9.59;100.00;102536.88;5224201;28;20025;-75
2022/02/09 02:59:47;;;;;;;6.38;5.55;;;;;;;9.46;100.00;102512.25;5224862;28;20543;-75
2022/02/09 03:13:27;;;;;;;6.45;5.35;;;;;;;9.39;100.00;102516.97;5223817;28;20121;-75
2022/02/09 03:16:07;;;;;;;5.20;4.70;;;;;;;9.42;100.00;102518.59;5221398;28;20525;-76
2022/02/09 03:24:12;;;;;;;7.20;5.32;;;;;;;9.32;100.00;102504.31;5226824;28;20033;-75
2022/02/09 03:27:04;;;;;;;5.70;5.20;;;;;;;9.32;100.00;102504.31;5223224;28;20457;-75
2022/02/09 03:49:34;;;;;;;9.52;6.18;;;;;;;9.25;100.00;102482.88;5222982;28;20085;-76
2022/02/09 03:54:53;;;;;;;7.07;6.00;;;;;;;9.29;100.00;102479.19;5222970;28;20037;-76
2022/02/09 03:57:30;;;;;;;6.65;5.95;;;;;;;9.25;100.00;102473.25;5221370;28;20446;-75
2022/02/09 04:00:03;;;;;;;6.72;6.07;;;;;;;9.25;100.00;102475.03;5219921;28;20129;-76
2022/02/09 04:02:34;;;;;;;7.13;6.43;;;;;;;9.23;100.00;102485.56;5222712;28;20471;-75
2022/02/09 04:05:07;;;;;;;7.50;6.38;;;;;;;9.22;100.00;102480.44;5223760;28;20039;-75
2022/02/09 04:07:38;;;;;;;7.50;5.80;;;;;;;9.23;100.00;102493.41;5222590;28;20499;-75
2022/02/09 04:10:15;;;;;;;6.45;5.50;;;;;;;9.18;100.00;102478.91;5223388;28;20022;-75
2022/02/09 04:15:54;;;;;;;6.82;5.93;;;;;;;9.19;100.00;102484.03;5223693;28;20046;-75
2022/02/09 04:38:12;;;;;;;4.80;3.83;;;;;;;9.16;100.00;102484.19;5223179;28;20061;-75
2022/02/09 04:43:48;;;;;;;6.40;4.72;;;;;;;9.11;100.00;102465.28;5221589;28;20072;-76
2022/02/09 04:49:38;;;;;;;6.05;3.38;;;;;;;9.13;100.00;102478.28;5191731;28;20128;-75
2022/02/09 05:17:37;;;;;;;4.30;3.03;;;;;;;9.00;100.00;102465.84;5220588;28;20033;-75
2022/02/09 05:25:02;;;;;;;3.75;1.85;;;;;;;9.08;100.00;102472.44;5221764;28;20403;-75
2022/02/09 05:27:49;;;;;;;2.33;1.60;;;;;;;9.06;100.00;102472.53;5222155;28;20033;-75
2022/02/09 05:30:21;;;;;;;2.35;1.70;;;;;;;9.02;100.00;102477.09;5220554;28;20021;-75
2022/02/09 05:32:53;;;;;;;2.90;1.73;;;;;;;9.06;100.00;102471.69;5219345;28;20147;-75
2022/02/09 05:35:26;;;;;;;3.38;1.95;;;;;;;8.97;100.00;102476.47;5222276;28;20064;-75
2022/02/09 05:37:58;;;;;;;2.45;1.40;;;;;;;8.92;100.00;102475.03;5220540;28;20030;-76
2022/02/09 05:40:29;;;;;;;2.15;1.55;;;;;;;8.94;100.00;102460.97;5219397;28;20060;-75
2022/02/09 05:43:01;;;;;;;2.83;1.92;;;;;;;8.87;100.00;102462.19;5222698;28;20554;-75
2022/02/09 05:53:35;;;;;;;3.67;2.22;;;;;;;8.82;100.00;102451.13;5218019;28;20475;-75
2022/02/09 05:59:05;;;;;;;3.00;2.17;;;;;;;8.89;100.00;102442.03;5224545;28;20798;-76
2022/02/09 06:01:37;;;;;;;5.10;2.58;;;;;;;8.87;100.00;102438.69;5227709;28;20033;-75
2022/02/09 06:04:09;;;;;;;3.80;2.42;;;;;;;8.83;100.00;102445.00;5223879;28;21177;-75
2022/02/09 06:06:42;;;;;;;3.10;2.28;;;;;;;8.83;100.00;102450.22;5225144;28;20053;-75
2022/02/09 06:09:14;;;;;;;4.35;2.83;;;;;;;8.84;100.00;102444.06;5225670;28;20036;-75
2022/02/09 06:11:50;;;;;;;5.63;3.10;;;;;;;8.83;100.00;102438.94;5224797;28;20022;-75
2022/02/09 06:14:40;;;;;;;3.53;2.55;;;;;;;8.83;100.00;102431.94;5225468;28;20037;-75
2022/02/09 06:20:06;;;;;;;3.50;3.00;;;;;;;8.94;100.00;102441.78;5175289;28;20041;-75
2022/02/09 06:22:37;;;;;;;3.90;2.80;;;;;;;8.91;100.00;102449.81;5222804;28;20100;-75
2022/02/09 06:25:09;;;;;;;5.05;3.13;;;;;;;8.94;100.00;102458.34;5224186;28;20049;-75
2022/02/09 06:27:40;;;;;;;5.45;3.55;;;;;;;8.94;100.00;102454.88;5223971;28;20084;-75
2022/02/09 06:30:12;;;;;;;4.70;3.88;;;;;;;9.00;100.00;102457.16;5222287;28;20120;-75
2022/02/09 06:32:43;;;;;;;4.93;3.80;;;;;;;8.97;100.00;102452.94;5224242;28;20018;-74
2022/02/09 06:35:15;;;;;;;5.47;4.15;;;;;;;9.05;100.00;102460.38;5228933;28;20136;-74
2022/02/09 06:37:48;;;;;;;5.03;3.90;;;;;;;9.00;100.00;102467.63;5234225;28;20041;-74
2022/02/09 06:40:20;;;;;;;5.40;3.92;;;;;;;9.00;100.00;102463.25;5232556;28;20092;-75
2022/02/09 06:42:51;;;;;;;6.63;4.60;;;;;;;9.01;100.00;102458.84;5232415;28;20040;-74
2022/02/09 06:45:29;;;;;;;7.03;4.68;;;;;;;9.03;100.00;102464.84;5233256;28;20025;-74
2022/02/09 06:48:00;;;;;;;5.82;4.10;;;;;;;9.04;100.00;102463.91;5223654;28;20025;-75
2022/02/09 06:50:37;;;;;;;5.45;4.85;;;;;;;9.02;100.00;102458.78;5228243;28;20485;-75
2022/02/09 06:55:51;;;;;;;7.85;5.00;;;;;;;8.99;100.00;102448.50;5231277;28;20391;-74
2022/02/09 06:59:10;;;;;;;7.78;4.95;;;;;;;9.02;100.00;102455.34;5214993;28;20752;-75
2022/02/09 07:01:22;;;;;;;7.30;5.32;;;;;;;9.06;100.00;102456.84;5225602;28;20045;-74
2022/02/09 07:03:53;;;;;;;10.63;6.50;;;;;;;9.02;100.00;102458.78;5209159;28;20221;-76
2022/02/09 07:06:27;;;;;;;6.80;5.10;;;;;;;9.08;100.00;102454.16;5220920;28;20080;-74
2022/02/09 07:08:59;;;;;;;7.78;5.90;;;;;;;9.08;100.00;102464.59;5225630;28;20647;-74
2022/02/09 07:11:30;;;;;;;6.95;5.75;;;;;;;9.09;100.00;102456.69;5206884;28;20068;-74
2022/02/09 07:14:02;;;;;;;7.10;5.97;;;;;;;9.05;100.00;102462.16;5220493;28;20032;-74
2022/02/09 07:16:34;;;;;;;8.38;6.43;;;;;;;9.10;100.00;102460.16;5221854;28;20022;-74
2022/02/09 07:19:08;;;;;;;9.15;5.90;;;;;;;9.07;100.00;102450.69;5215360;28;20048;-74
2022/02/09 07:21:41;;;;;;;7.95;6.20;;;;;;;9.08;100.00;102462.00;5224742;28;20414;-74
2022/02/09 07:24:15;;;;;;;8.07;5.93;;;;;;;9.08;100.00;102457.59;5221685;28;20498;-74
2022/02/09 07:29:19;;;;;;;7.30;5.80;;;;;;;9.03;100.00;102446.56;5225232;28;20025;-75
2022/02/09 07:31:50;;;;;;;7.00;5.60;;;;;;;9.08;100.00;102468.06;5223026;28;20487;-74
2022/02/09 07:34:22;;;;;;;7.20;5.80;;;;;;;9.14;100.00;102459.91;5225480;28;20033;-76
2022/02/09 07:36:53;;;;;;;7.65;5.82;;;;;;;9.14;100.00;102454.69;5224945;28;20103;-74
2022/02/09 07:39:24;;;;;;;8.23;6.15;;;;;;;9.14;100.00;102462.53;5223808;28;20503;-75
2022/02/09 07:41:56;;;;;;;7.15;6.05;;;;;;;9.11;100.00;102456.59;5226288;28;20112;-74
2022/02/09 07:44:44;;;;;;;9.23;6.15;;;;;;;9.08;100.00;102454.16;5224372;28;20025;-74
2022/02/09 07:47:41;;;;;;;7.68;6.43;;;;;;;8.94;100.00;102454.88;5223555;28;20570;-74
2022/02/09 07:50:31;;;;;;;7.97;6.25;;;;;;;8.96;100.00;102451.25;5224739;28;20033;-75
2022/02/09 07:53:09;;;;;;;6.93;5.60;;;;;;;9.01;100.00;102451.00;5224489;28;20562;-74
2022/02/09 07:55:41;;;;;;;7.40;5.97;;;;;;;8.97;100.00;102442.47;5223778;28;20038;-74
2022/02/09 07:58:12;;;;;;;8.48;6.25;;;;;;;9.00;100.00;102444.94;5221947;28;20036;-74
2022/02/09 08:00:45;;;;;;;7.90;6.05;;;;;;;9.06;100.00;102451.63;5224450;28;20037;-74
2022/02/09 08:03:16;;;;;;;7.88;6.47;;;;;;;9.14;100.00;102446.00;5223413;28;20033;-74
2022/02/09 08:05:48;;;;;;;7.22;6.07;;;;;;;9.16;100.00;102438.91;5220947;28;20030;-75
2022/02/09 08:08:19;;;;;;;8.13;6.57;;;;;;;9.08;100.00;102441.91;5223193;28;20412;-75
2022/02/09 08:10:54;;;;;;;8.20;7.07;;;;;;;9.15;100.00;102445.06;5223298;28;20041;-74
2022/02/09 08:35:23;;;;;;;8.40;6.78;;;;;;;9.36;100.00;102441.31;5226950;28;20042;-76
2022/02/09 08:37:57;;;;;;;8.05;7.00;;;;;;;9.41;100.00;102441.88;5223755;28;20410;-75
2022/02/09 08:40:28;;;;;;;10.05;7.10;;;;;;;9.47;100.00;102446.81;5228576;28;20927;-76
2022/02/09 08:43:00;;;;;;;7.57;6.72;;;;;;;9.49;100.00;102442.31;5207211;28;20026;-75
2022/02/09 08:45:31;;;;;;;8.45;6.65;;;;;;;9.48;100.00;102447.63;5223788;28;21360;-75
2022/02/09 08:48:03;;;;;;;8.50;7.60;;;;;;;9.54;100.00;102451.69;5224306;28;20510;-75
2022/02/09 08:50:34;;;;;;;9.10;7.35;;;;;;;9.55;100.00;102438.53;5221268;28;20032;-74
2022/02/09 08:53:06;;;;;;;8.80;6.72;;;;;;;9.58;100.00;102437.50;5221675;28;20079;-74
2022/02/09 08:55:37;;;;;;;8.38;7.10;;;;;;;9.62;100.00;102442.50;5222009;28;20073;-74
2022/02/09 08:58:09;;;;;;;8.27;5.97;;;;;;;9.68;100.00;102436.91;5221990;28;20104;-74
2022/02/09 09:00:40;;;;;;;7.80;6.50;;;;;;;9.68;100.00;102436.06;5217257;28;20029;-74
2022/02/09 09:05:50;;;;;;;11.65;6.70;;;;;;;9.78;100.00;102442.50;5215944;28;20041;-75
2022/02/09 09:59:52;;;;;;;6.45;5.10;;;;;;;10.15;100.00;102449.09;5226064;28;20029;-74
2022/02/09 10:02:14;;;;;;;5.72;4.93;;;;;;;10.08;100.00;102447.78;5223542;28;20033;-75
2022/02/09 10:31:51;;;;;;;6.05;4.45;;;;;;;10.04;100.00;102468.94;5227281;28;20653;-74
2022/02/09 10:34:10;;;;;;;5.32;4.28;;;;;;;10.08;100.00;102458.25;5227659;28;20042;-74
2022/02/09 10:36:49;;;;;;;4.97;4.05;;;;;;;9.95;100.00;102467.72;5227483;28;20033;-74
2022/02/09 10:39:57;;;;;;;5.68;4.20;;;;;;;9.92;100.00;102458.25;5227589;28;20029;-75
2022/02/09 10:42:22;;;;;;;5.05;3.92;;;;;;;9.88;100.00;102450.66;5224257;28;20041;-74
2022/02/09 10:45:03;;;;;;;6.88;4.78;;;;;;;9.96;100.00;102458.91;5226379;28;20112;-74
2022/02/09 10:47:34;;;;;;;6.32;4.82;;;;;;;9.94;100.00;102459.00;5229116;28;20017;-74
2022/02/09 10:50:33;;;;;;;7.35;4.65;;;;;;;10.08;100.00;102454.78;5225629;28;20036;-74
2022/02/09 10:53:11;;;;;;;7.40;4.50;;;;;;;10.14;100.00;102451.78;5225774;28;20060;-75
2022/02/09 10:55:46;;;;;;;5.95;4.45;;;;;;;10.09;100.00;102449.44;5221783;28;20069;-74
2022/02/09 10:58:21;;;;;;;5.72;4.53;;;;;;;10.14;100.00;102457.03;5226822;28;20037;-74
2022/02/09 11:00:53;;;;;;;6.30;4.60;;;;;;;10.18;100.00;102448.06;5228236;28;20037;-74
2022/02/09 11:03:27;;;;;;;7.55;4.40;;;;;;;10.26;100.00;102448.50;5222965;28;20018;-74
2022/02/09 11:06:01;;;;;;;6.05;4.32;;;;;;;10.39;100.00;102449.50;5223717;28;20032;-74
2022/02/09 11:08:33;;;;;;;6.55;4.72;;;;;;;10.43;100.00;102445.75;5221018;28;20038;-74
2022/02/09 11:11:04;;;;;;;6.15;4.40;;;;;;;10.48;100.00;102454.19;5211440;28;20033;-75
2022/02/09 11:13:36;;;;;;;9.50;4.88;;;;;;;10.55;100.00;102451.22;5220543;28;20022;-75
2022/02/09 11:16:09;;;;;;;5.53;4.55;;;;;;;10.63;100.00;102441.09;5222488;28;20109;-75
2022/02/09 11:18:41;;;;;;;5.90;4.93;;;;;;;10.61;100.00;102435.13;5222246;28;20157;-75
2022/02/09 11:21:14;;;;;;;6.20;4.35;;;;;;;10.64;100.00;102434.91;5222514;28;20157;-75
2022/02/09 11:23:52;;;;;;;7.55;4.25;;;;;;;10.64;100.00;102441.00;5222085;28;20018;-75
2022/02/09 11:26:43;;;;;;;6.57;4.57;;;;;;;10.74;100.00;102445.72;5225750;28;20017;-75
2022/02/09 11:29:19;;;;;;;6.55;4.20;;;;;;;10.68;100.00;102439.91;5225284;28;20041;-75
2022/02/09 11:32:26;;;;;;;7.95;4.47;;;;;;;10.84;100.00;102450.31;5227221;28;20065;-75
2022/02/09 11:38:05;;;;;;;6.67;4.63;;;;;;;10.77;100.00;102450.78;5224522;28;20120;-74
2022/02/09 11:43:19;;;;;;;7.00;4.55;;;;;;;10.61;100.00;102458.72;5222583;28;20387;-74
2022/02/09 12:00:57;;;;;;;7.88;4.45;;;;;;;10.74;100.00;102427.38;5223799;28;20496;-74
2022/02/09 12:09:41;;;;;;;5.80;3.95;;;;;;;11.05;100.00;102428.97;5221277;28;20367;-75
2022/02/09 12:12:22;;;;;;;5.45;4.05;;;;;;;11.00;100.00;102425.78;5223412;28;20048;-75
2022/02/09 12:20:29;;;;;;;6.43;4.10;;;;;;;11.14;100.00;102402.19;5224039;28;20086;-75
2022/02/09 12:25:43;;;;;;;5.90;4.00;;;;;;;11.10;100.00;102390.16;5224060;28;20032;-74
2022/02/09 12:28:19;;;;;;;6.20;4.65;;;;;;;11.14;100.00;102395.16;5222144;28;20044;-75
2022/02/09 12:31:07;;;;;;;7.47;4.38;;;;;;;11.36;100.00;102409.53;5222096;28;20096;-74
2022/02/09 12:33:42;;;;;;;7.60;4.38;;;;;;;11.22;100.00;102409.56;5221523;28;20095;-74
2022/02/09 12:36:19;;;;;;;6.00;4.20;;;;;;;11.29;100.00;102403.84;5219362;28;20021;-74
2022/02/09 12:38:57;;;;;;;7.93;4.38;;;;;;;11.31;100.00;102396.69;5221127;28;20034;-74
2022/02/09 12:41:31;;;;;;;6.50;4.15;;;;;;;11.25;100.00;102391.84;5221245;28;20033;-75
2022/02/09 12:44:09;;;;;;;7.10;3.80;;;;;;;11.27;100.00;102376.84;5218821;28;20025;-74
2022/02/09 12:46:45;;;;;;;5.95;4.45;;;;;;;11.27;100.00;102383.88;5222093;28;20041;-75
2022/02/09 12:49:19;;;;;;;7.00;4.30;;;;;;;11.32;100.00;102390.50;5222313;28;20026;-75
2022/02/09 12:51:51;;;;;;;7.70;4.18;;;;;;;11.30;100.00;102387.16;5220320;28;20082;-75
2022/02/09 12:54:22;;;;;;;5.63;4.20;;;;;;;11.33;100.00;102380.88;5224728;28;20436;-74
2022/02/09 12:56:56;;;;;;;6.20;4.28;;;;;;;11.39;100.00;102380.47;5223962;28;20038;-74
2022/02/09 12:59:28;;;;;;;6.35;4.25;;;;;;;11.42;100.00;102381.13;5223806;28;20033;-74
2022/02/09 13:01:59;;;;;;;4.78;3.83;;;;;;;11.39;100.00;102375.22;5225961;28;20068;-74
2022/02/09 13:04:31;;;;;;;7.25;3.92;;;;;;;11.42;100.00;102375.88;5222497;28;20438;-74
2022/02/09 13:07:16;;;;;;;6.05;4.15;;;;;;;11.61;100.00;102370.28;5227951;28;20045;-75
2022/02/09 13:09:51;;;;;;;6.15;3.90;;;;;;;11.47;100.00;102370.31;5228096;28;20047;-75
2022/02/09 13:12:28;;;;;;;5.07;3.00;;;;;;;11.62;100.00;102373.75;5228959;28;20021;-75
2022/02/09 13:15:20;;;;;;;8.48;3.75;;;;;;;11.67;100.00;102372.53;5226588;28;20041;-75
2022/02/09 13:21:26;;;;;;;6.03;3.40;;;;;;;11.68;100.00;102370.72;5224061;28;20041;-75
2022/02/09 14:07:37;;;;;;;4.82;3.40;;;;;;;11.79;100.00;102344.63;5227137;28;20301;-75
2022/02/09 14:18:09;;;;;;;5.40;3.30;;;;;;;11.70;100.00;102339.94;5223668;28;20714;-75
2022/02/09 14:53:57;;;;;;;5.80;4.55;;;;;;;11.39;100.00;102334.06;5219884;28;20048;-75
2022/02/09 14:56:51;;;;;;;6.75;5.07;;;;;;;11.44;100.00;102339.88;5224853;28;20026;-75
2022/02/09 14:59:43;;;;;;;5.90;4.40;;;;;;;11.45;100.00;102345.97;5221808;28;20443;-75
2022/02/09 15:02:21;;;;;;;5.90;4.70;;;;;;;11.32;100.00;102327.53;5224520;28;20033;-75
2022/02/09 15:12:56;;;;;;;7.15;5.00;;;;;;;11.34;100.00;102351.06;5223381;28;20077;-75
2022/02/09 15:15:39;;;;;;;6.47;5.07;;;;;;;11.32;100.00;102348.53;5224146;28;20140;-75
2022/02/09 15:23:29;;;;;;;7.57;6.57;;;;;;;11.32;100.00;102345.06;5227620;28;20033;-75
2022/02/09 15:26:02;;;;;;;;;;;;;;;11.87;100.00;102336.25;5226922;28;20057;-75
2022/02/09 15:28:35;;;;;;;7.67;5.87;;;;;;;11.47;100.00;102335.38;5225941;28;19913;-74
2022/02/09 15:31:16;;;;;;;8.63;6.90;;;;;;;11.41;100.00;102337.44;5223648;28;20769;-75
2022/02/09 15:33:51;;;;;;;10.30;6.95;;;;;;;11.41;100.00;102336.63;5223379;28;20128;-74
2022/02/09 15:36:36;;;;;;;9.48;7.72;;;;;;;11.42;100.00;102333.03;5226447;28;20034;-74
2022/02/09 15:39:07;;;;;;;7.95;7.15;;;;;;;11.41;100.00;102340.06;5226242;28;20360;-74
2022/02/09 15:41:58;;;;;;;8.57;7.70;;;;;;;11.41;100.00;102332.22;5228507;28;20025;-75
2022/02/09 15:59:20;;;;;;;10.27;8.55;;;;;;;11.37;100.00;102330.72;5228316;28;20450;-74
2022/02/09 16:16:37;;;;;;;10.13;9.07;;;;;;;11.31;100.00;102328.47;5226559;28;20038;-75
2022/02/09 16:24:08;;;;;;;10.98;9.35;;;;;;;11.27;100.00;102323.53;5221287;28;20031;-74
2022/02/09 16:36:11;;;;;;;12.48;9.82;;;;;;;11.18;100.00;102311.84;5220540;28;20045;-75
2022/02/09 16:38:11;;;;;;;10.57;9.52;;;;;;;11.17;100.00;102313.63;5226401;28;20096;-75
2022/02/09 16:46:24;;;;;;;12.90;10.35;;;;;;;11.14;100.00;102315.63;5221156;28;20065;-74
2022/02/09 16:51:57;;;;;;;14.52;11.32;;;;;;;11.11;100.00;102313.19;5224195;28;20057;-75
2022/02/09 16:54:58;;;;;;;17.38;14.10;;;;;;;11.09;100.00;102310.63;5224534;28;20207;-75
2022/02/09 17:08:26;;;;;;;20.02;16.67;;;;;;;11.10;100.00;102299.22;5222501;28;20180;-75
2022/02/09 17:19:58;;;;;;;24.52;21.67;;;;;;;10.93;100.00;102309.94;5221366;28;20045;-75
2022/02/09 17:22:29;;;;;;;17.45;15.55;;;;;;;10.96;100.00;102315.84;5220923;28;20029;-74
2022/02/09 17:25:00;;;;;;;13.90;12.50;;;;;;;10.96;100.00;102325.47;5226328;28;20030;-74
2022/02/09 17:27:32;;;;;;;14.30;12.77;;;;;;;10.93;100.00;102317.81;5225529;28;20071;-74
2022/02/09 17:33:04;;;;;;;13.75;11.57;;;;;;;10.92;100.00;102316.97;5225755;28;20067;-74
2022/02/09 17:38:37;;;;;;;15.75;12.88;;;;;;;10.90;100.00;102316.19;5187805;28;20103;-74
2022/02/09 17:55:30;;;;;;;17.83;14.63;;;;;;;10.80;100.00;102302.00;5226846;28;20049;-74
2022/02/09 17:58:07;;;;;;;14.93;13.43;;;;;;;10.81;100.00;102295.81;5228802;28;20541;-74
2022/02/09 18:00:39;;;;;;;14.25;12.75;;;;;;;10.83;100.00;102303.56;5230158;28;20183;-74
2022/02/09 18:03:11;;;;;;;14.48;12.60;;;;;;;10.83;100.00;102304.41;5226442;28;20298;-75
2022/02/09 18:05:49;;;;;;;15.15;13.57;;;;;;;10.82;100.00;102294.88;5228206;28;20082;-74
2022/02/09 18:08:38;;;;;;;14.50;12.95;;;;;;;10.79;100.00;102286.34;5229236;28;20033;-75
2022/02/09 18:11:27;;;;;;;15.18;12.93;;;;;;;10.83;100.00;102290.47;5226508;28;20037;-75
2022/02/09 18:14:18;;;;;;;18.17;14.15;;;;;;;10.78;100.00;102293.38;5228021;28;20035;-75
2022/02/09 18:30:56;;;;;;;16.42;14.73;;;;;;;10.73;100.00;102278.91;5225981;28;20037;-74
2022/02/09 18:42:45;;;;;;;16.45;14.80;;;;;;;10.70;100.00;102265.03;5229172;28;20550;-75
2022/02/09 18:45:00;;;;;;;15.30;13.70;;;;;;;10.70;100.00;102262.41;5226905;28;20051;-75
2022/02/09 18:47:56;;;;;;;15.32;13.05;;;;;;;10.63;100.00;102255.88;5218402;28;20451;-74
2022/02/09 19:04:49;;;;;;;17.02;15.32;;;;;;;10.61;100.00;102251.69;5213523;28;20073;-74
2022/02/09 19:46:30;;;;;;;21.08;17.65;;;;;;;10.46;100.00;102217.63;5217885;28;20033;-75
2022/02/09 19:57:01;;;;;;;18.17;14.90;;;;;;;10.54;100.00;102224.16;5226343;28;20044;-74
2022/02/09 19:59:35;;;;;;;15.52;13.70;;;;;;;10.51;100.00;102221.72;5224704;28;20112;-75
2022/02/09 20:02:08;;;;;;;15.05;13.50;;;;;;;10.44;100.00;102219.47;5226751;28;20033;-75
2022/02/09 20:04:39;;;;;;;15.05;12.75;;;;;;;10.48;100.00;102220.13;5226250;28;20024;-75
2022/02/09 20:07:10;;;;;;;13.05;11.30;;;;;;;10.47;100.00;102216.69;5225345;28;20487;-76
2022/02/09 20:09:42;;;;;;;17.42;12.23;;;;;;;10.47;100.00;102218.47;5223911;28;20022;-75
2022/02/09 20:12:14;;;;;;;13.75;10.88;;;;;;;10.44;100.00;102214.25;5224321;28;20033;-76
2022/02/09 20:14:48;;;;;;;12.70;11.00;;;;;;;10.45;100.00;102221.19;5224465;28;20070;-75
2022/02/09 20:17:19;;;;;;;12.27;10.25;;;;;;;10.44;100.00;102218.66;5225099;28;20028;-75
2022/02/09 20:19:56;;;;;;;10.55;9.35;;;;;;;10.42;100.00;102218.75;5226781;28;20017;-76
2022/02/09 20:22:28;;;;;;;12.98;8.68;;;;;;;10.40;100.00;102215.38;5222548;28;20055;-75
2022/02/09 20:24:59;;;;;;;10.55;8.80;;;;;;;10.42;100.00;102216.13;5224168;28;20033;-76
2022/02/09 20:27:34;;;;;;;10.55;8.65;;;;;;;10.41;100.00;102208.34;5223499;28;20048;-74
2022/02/09 20:30:09;;;;;;;10.32;8.52;;;;;;;10.36;100.00;102213.88;5226127;28;20025;-75
2022/02/09 20:32:47;;;;;;;10.40;7.90;;;;;;;10.38;100.00;102224.25;5223911;28;20030;-74
2022/02/09 20:35:20;;;;;;;9.35;7.70;;;;;;;10.36;100.00;102221.75;5214018;28;20430;-74
2022/02/09 20:37:54;;;;;;;10.38;8.38;;;;;;;10.37;100.00;102220.78;5227294;28;20033;-74
2022/02/09 20:40:34;;;;;;;11.40;8.27;;;;;;;10.34;100.00;102218.38;5223800;28;20117;-75
2022/02/09 20:43:07;;;;;;;8.77;7.50;;;;;;;10.35;100.00;102224.47;5223336;28;20173;-75
2022/02/09 20:45:48;;;;;;;9.30;7.82;;;;;;;10.34;100.00;102228.00;5224691;28;20032;-74
2022/02/09 20:48:26;;;;;;;8.13;6.82;;;;;;;10.32;100.00;102222.88;5221403;28;20029;-74
2022/02/09 20:51:00;;;;;;;9.98;7.47;;;;;;;10.32;100.00;102224.66;5208640;28;20055;-75
2022/02/09 20:53:32;;;;;;;10.13;7.18;;;;;;;10.31;100.00;102217.75;5225716;28;20032;-75
2022/02/09 20:56:03;;;;;;;12.70;7.75;;;;;;;10.32;100.00;102219.41;5219804;28;20030;-74
2022/02/09 20:58:38;;;;;;;9.82;7.10;;;;;;;10.29;100.00;102214.34;5223522;28;20114;-74
2022/02/09 21:01:14;;;;;;;8.20;6.57;;;;;;;10.26;100.00;102204.06;5208910;28;20391;-75
2022/02/09 21:03:58;;;;;;;9.35;7.28;;;;;;;10.30;100.00;102205.56;5226515;28;20029;-75
2022/02/09 21:06:56;;;;;;;7.50;6.20;;;;;;;10.27;100.00;102201.38;5220975;28;21691;-75
2022/02/09 21:12:21;;;;;;;9.88;6.95;;;;;;;10.18;100.00;102205.34;5219840;28;20108;-75
2022/02/09 21:41:42;;;;;;;8.73;6.65;;;;;;;10.10;100.00;102175.34;5234578;28;20033;-74
2022/02/09 21:45:21;;;;;;;8.35;6.18;;;;;;;10.08;100.00;102179.84;5226417;28;20497;-75
2022/02/09 21:59:03;;;;;;;8.30;6.00;;;;;;;10.04;100.00;102166.09;5228879;28;20437;-75
2022/02/09 22:29:05;;;;;;;6.80;5.28;;;;;;;9.91;100.00;102131.94;5225464;28;20041;-76
2022/02/09 22:45:54;;;;;;;8.40;6.00;;;;;;;9.81;100.00;102104.69;5225856;28;20026;-75
2022/02/09 22:56:41;;;;;;;12.18;5.80;;;;;;;9.85;100.00;102111.41;5225369;28;20582;-74
2022/02/09 22:59:24;;;;;;;7.95;5.85;;;;;;;9.84;100.00;102109.69;5227602;28;20376;-75
2022/02/09 23:02:04;;;;;;;6.68;5.60;;;;;;;9.86;100.00;102105.22;5228053;28;20025;-75
2022/02/09 23:07:20;;;;;;;6.57;5.18;;;;;;;9.80;100.00;102086.44;5226605;28;20077;-75
2022/02/09 23:23:54;;;;;;;7.05;5.13;;;;;;;9.86;100.00;102079.03;5225946;28;20021;-73
2022/02/09 23:57:51;;;;;;;5.97;5.35;;;;;;;9.82;100.00;102046.16;5224286;28;20084;-75
